SAS427 ENGM-LEAL
Flight info
| Callsign | SAS427 |
|---|---|
| Flight time | N/A |
| Altitude | 40000 |
| Route | VIPPA DCT KUGAL DCT JUIST DCT GISEB DCT CIV DCT MEDIL/N0489F410 DCT KOVIN DCT DUCRA DCT RESMI DCT DEKOD DCT DISAK DCT DIRMO DCT GUERE DCT EVPOK DCT AGN DCT ANETO DCT POSSY DCT XIMPE DCT RIMES DCT SAURA DCT TATOS DCT PLANA DCT VLC |
| Aircraft | A359/H-SDE2E3GHIJ3J4J5LM1ORWXY/LB1D1 |
Departure
| Time | N/A |
|---|---|
| Airport | Oslo-Gardermoen International Airport (ENGM) |
Arrival
| Time | 2026-05-06 22:44 |
|---|---|
| Airport | Alicante-Elche Miguel Hernández Airport (LEAL) |
| Time | Latitude | Longitude | Altitude | Speed | Heading |
|---|---|---|---|---|---|
| 2026-05-06 22:16 | 40.14772 | -0.22593 | 40961 ft | 460 kts | 200° |
| 2026-05-06 22:17 | 40.08640 | -0.24993 | 40975 ft | 460 kts | 200° |
| 2026-05-06 22:17 | 40.02509 | -0.27390 | 40981 ft | 460 kts | 200° |
| 2026-05-06 22:18 | 39.96397 | -0.29783 | 40988 ft | 464 kts | 200° |
| 2026-05-06 22:18 | 39.90167 | -0.32213 | 40999 ft | 470 kts | 200° |
| 2026-05-06 22:19 | 39.83890 | -0.34653 | 41068 ft | 471 kts | 200° |
| 2026-05-06 22:19 | 39.77641 | -0.37071 | 40754 ft | 457 kts | 200° |
| 2026-05-06 22:20 | 39.74628 | -0.38233 | 39833 ft | 450 kts | 200° |
| 2026-05-06 22:20 | 39.71628 | -0.39396 | 38649 ft | 450 kts | 200° |
| 2026-05-06 22:20 | 39.68633 | -0.40557 | 37204 ft | 449 kts | 201° |
| 2026-05-06 22:20 | 39.65636 | -0.41716 | 35784 ft | 449 kts | 201° |
| 2026-05-06 22:21 | 39.62648 | -0.42871 | 34362 ft | 448 kts | 201° |
| 2026-05-06 22:21 | 39.59660 | -0.44025 | 32739 ft | 447 kts | 201° |
| 2026-05-06 22:21 | 39.56680 | -0.45175 | 30973 ft | 448 kts | 201° |
| 2026-05-06 22:21 | 39.53684 | -0.46331 | 29411 ft | 446 kts | 201° |
| 2026-05-06 22:22 | 39.50763 | -0.47453 | 28766 ft | 429 kts | 202° |
| 2026-05-06 22:22 | 39.47953 | -0.48555 | 28229 ft | 417 kts | 202° |
| 2026-05-06 22:22 | 39.45184 | -0.49591 | 27627 ft | 414 kts | 200° |
| 2026-05-06 22:22 | 39.42397 | -0.50588 | 27006 ft | 414 kts | 200° |
| 2026-05-06 22:23 | 39.39630 | -0.51571 | 26390 ft | 411 kts | 200° |
| 2026-05-06 22:23 | 39.36920 | -0.52533 | 25769 ft | 408 kts | 200° |
| 2026-05-06 22:23 | 39.34194 | -0.53502 | 25168 ft | 405 kts | 200° |
| 2026-05-06 22:23 | 39.31485 | -0.54464 | 24573 ft | 402 kts | 199° |
| 2026-05-06 22:24 | 39.28801 | -0.55418 | 23974 ft | 400 kts | 199° |
| 2026-05-06 22:24 | 39.26128 | -0.56369 | 23336 ft | 398 kts | 199° |
| 2026-05-06 22:24 | 39.23472 | -0.57312 | 22689 ft | 394 kts | 199° |
| 2026-05-06 22:24 | 39.20831 | -0.58242 | 22081 ft | 391 kts | 198° |
| 2026-05-06 22:25 | 39.18217 | -0.59155 | 21479 ft | 389 kts | 198° |
| 2026-05-06 22:25 | 39.15614 | -0.60067 | 20865 ft | 386 kts | 198° |
| 2026-05-06 22:25 | 39.13896 | -0.60670 | 20456 ft | 384 kts | 198° |
| 2026-05-06 22:25 | 39.11326 | -0.61575 | 19841 ft | 382 kts | 198° |
| 2026-05-06 22:26 | 39.08770 | -0.62478 | 19230 ft | 381 kts | 198° |
| 2026-05-06 22:26 | 39.06215 | -0.63380 | 18613 ft | 380 kts | 198° |
| 2026-05-06 22:26 | 39.03663 | -0.64281 | 17936 ft | 379 kts | 198° |
| 2026-05-06 22:26 | 39.01121 | -0.65177 | 17268 ft | 377 kts | 197° |
| 2026-05-06 22:27 | 38.98601 | -0.66065 | 16624 ft | 374 kts | 197° |
| 2026-05-06 22:27 | 38.96106 | -0.66943 | 15961 ft | 371 kts | 197° |
| 2026-05-06 22:27 | 38.93622 | -0.67818 | 15337 ft | 369 kts | 197° |
| 2026-05-06 22:27 | 38.91150 | -0.68687 | 14699 ft | 367 kts | 197° |
| 2026-05-06 22:28 | 38.88691 | -0.69552 | 14046 ft | 365 kts | 197° |
| 2026-05-06 22:28 | 38.86247 | -0.70411 | 13360 ft | 364 kts | 197° |
| 2026-05-06 22:28 | 38.83814 | -0.71266 | 12699 ft | 361 kts | 197° |
| 2026-05-06 22:28 | 38.81400 | -0.72112 | 12056 ft | 357 kts | 196° |
| 2026-05-06 22:29 | 38.79015 | -0.72947 | 11566 ft | 351 kts | 196° |
| 2026-05-06 22:29 | 38.76723 | -0.73748 | 11447 ft | 333 kts | 196° |
| 2026-05-06 22:29 | 38.74544 | -0.74511 | 11334 ft | 316 kts | 196° |
| 2026-05-06 22:29 | 38.72498 | -0.75226 | 11218 ft | 292 kts | 196° |
| 2026-05-06 22:30 | 38.70610 | -0.75886 | 11123 ft | 278 kts | 196° |
| 2026-05-06 22:30 | 38.68774 | -0.76527 | 11012 ft | 271 kts | 196° |
| 2026-05-06 22:30 | 38.66958 | -0.77163 | 10919 ft | 270 kts | 196° |
| 2026-05-06 22:30 | 38.65144 | -0.77797 | 10607 ft | 270 kts | 196° |
| 2026-05-06 22:31 | 38.63335 | -0.78429 | 10257 ft | 270 kts | 196° |
| 2026-05-06 22:31 | 38.61516 | -0.79064 | 9911 ft | 271 kts | 196° |
| 2026-05-06 22:31 | 38.59723 | -0.79689 | 9753 ft | 262 kts | 195° |
| 2026-05-06 22:31 | 38.57990 | -0.80293 | 9625 ft | 257 kts | 195° |
| 2026-05-06 22:32 | 38.56264 | -0.80893 | 9484 ft | 257 kts | 195° |
| 2026-05-06 22:32 | 38.54574 | -0.81603 | 9201 ft | 256 kts | 206° |
| 2026-05-06 22:32 | 38.53168 | -0.82963 | 8888 ft | 254 kts | 224° |
| 2026-05-06 22:32 | 38.51904 | -0.84531 | 8573 ft | 253 kts | 227° |
| 2026-05-06 22:33 | 38.50753 | -0.86229 | 8271 ft | 251 kts | 229° |
| 2026-05-06 22:33 | 38.49572 | -0.87876 | 7986 ft | 251 kts | 225° |
| 2026-05-06 22:33 | 38.48311 | -0.89409 | 7681 ft | 250 kts | 220° |
| 2026-05-06 22:33 | 38.46976 | -0.90826 | 7379 ft | 249 kts | 217° |
| 2026-05-06 22:34 | 38.45588 | -0.92126 | 7077 ft | 247 kts | 213° |
| 2026-05-06 22:34 | 38.44151 | -0.93319 | 6785 ft | 246 kts | 210° |
| 2026-05-06 22:34 | 38.42674 | -0.94402 | 6499 ft | 244 kts | 206° |
| 2026-05-06 22:34 | 38.41160 | -0.95356 | 6245 ft | 242 kts | 202° |
| 2026-05-06 22:35 | 38.39608 | -0.96169 | 5979 ft | 240 kts | 195° |
| 2026-05-06 22:35 | 38.37972 | -0.96364 | 5754 ft | 235 kts | 171° |
| 2026-05-06 22:35 | 38.36371 | -0.95960 | 5544 ft | 233 kts | 164° |
| 2026-05-06 22:35 | 38.34872 | -0.95352 | 5476 ft | 218 kts | 152° |
| 2026-05-06 22:36 | 38.33763 | -0.94186 | 5407 ft | 201 kts | 124° |
| 2026-05-06 22:36 | 38.33259 | -0.92612 | 5306 ft | 186 kts | 103° |
| 2026-05-06 22:36 | 38.33025 | -0.91015 | 5166 ft | 184 kts | 100° |
| 2026-05-06 22:36 | 38.32821 | -0.89405 | 4965 ft | 185 kts | 100° |
| 2026-05-06 22:37 | 38.32620 | -0.87790 | 4816 ft | 184 kts | 99° |
| 2026-05-06 22:37 | 38.32431 | -0.86212 | 4630 ft | 180 kts | 100° |
| 2026-05-06 22:37 | 38.32235 | -0.84717 | 4416 ft | 163 kts | 101° |
| 2026-05-06 22:37 | 38.32047 | -0.83352 | 4200 ft | 151 kts | 101° |
| 2026-05-06 22:38 | 38.31870 | -0.82077 | 3986 ft | 142 kts | 101° |
| 2026-05-06 22:38 | 38.31706 | -0.80884 | 3804 ft | 132 kts | 101° |
| 2026-05-06 22:38 | 38.31549 | -0.79752 | 3624 ft | 129 kts | 101° |
| 2026-05-06 22:38 | 38.31392 | -0.78629 | 3463 ft | 129 kts | 101° |
| 2026-05-06 22:39 | 38.31234 | -0.77501 | 3283 ft | 129 kts | 100° |
| 2026-05-06 22:39 | 38.31079 | -0.76381 | 3114 ft | 129 kts | 100° |
| 2026-05-06 22:39 | 38.30923 | -0.75262 | 2936 ft | 129 kts | 99° |
| 2026-05-06 22:39 | 38.30767 | -0.74140 | 2761 ft | 128 kts | 99° |
| 2026-05-06 22:40 | 38.30612 | -0.73025 | 2590 ft | 128 kts | 99° |
| 2026-05-06 22:40 | 38.30456 | -0.71904 | 2426 ft | 128 kts | 98° |
| 2026-05-06 22:40 | 38.30301 | -0.70789 | 2246 ft | 128 kts | 98° |
| 2026-05-06 22:40 | 38.30146 | -0.69673 | 2079 ft | 128 kts | 98° |
| 2026-05-06 22:41 | 38.29836 | -0.67442 | 1732 ft | 128 kts | 98° |
| 2026-05-06 22:41 | 38.29680 | -0.66326 | 1561 ft | 128 kts | 98° |
| 2026-05-06 22:41 | 38.29525 | -0.65204 | 1383 ft | 129 kts | 99° |
| 2026-05-06 22:42 | 38.29370 | -0.64094 | 1218 ft | 129 kts | 98° |
| 2026-05-06 22:42 | 38.29214 | -0.62970 | 1045 ft | 130 kts | 98° |
| 2026-05-06 22:42 | 38.29056 | -0.61837 | 870 ft | 131 kts | 98° |
| 2026-05-06 22:42 | 38.28895 | -0.60679 | 686 ft | 132 kts | 98° |
| 2026-05-06 22:43 | 38.28735 | -0.59534 | 516 ft | 130 kts | 97° |
| 2026-05-06 22:43 | 38.28577 | -0.58392 | 348 ft | 131 kts | 97° |
| 2026-05-06 22:43 | 38.28422 | -0.57279 | 200 ft | 128 kts | 98° |
| 2026-05-06 22:43 | 38.28283 | -0.56265 | 117 ft | 90 kts | 101° |
| 2026-05-06 22:44 | 38.28215 | -0.55742 | 109 ft | 52 kts | 89° |
| 2026-05-06 22:44 | 38.28303 | -0.55332 | 101 ft | 25 kts | 68° |
| 2026-05-06 22:44 | 38.28332 | -0.55262 | 98 ft | 10 kts | 58° |
| 2026-05-06 22:44 | 38.28378 | -0.55171 | 98 ft | 14 kts | 56° |
| 2026-05-06 22:45 | 38.28413 | -0.55057 | 98 ft | 15 kts | 76° |
| 2026-05-06 22:45 | 38.28479 | -0.54981 | 98 ft | 13 kts | 15° |
| 2026-05-06 22:45 | 38.28574 | -0.54953 | 95 ft | 16 kts | 12° |
| 2026-05-06 22:45 | 38.28654 | -0.54937 | 94 ft | 9 kts | 355° |
| 2026-05-06 22:46 | 38.28683 | -0.54970 | 96 ft | 3 kts | 293° |
| 2026-05-06 22:46 | 38.28688 | -0.55006 | 96 ft | 0 kts | 280° |